Brandon, North Carolina
Current Conditions -  °F | °C
As of 11:55 PM on Sunday 21 Dec 2014 (Local Time) from KGEV Reporting Station
Light Rain Light Rain  
Wind Chill: 34°   Ceiling: 300
Heat Index: 34°   Visibility: 0.25mi
Dew Point: 34°   Wind: 3mph
Humidity: 100%   Direction: 150°SSE
Pressure: 30.14"   Gusts: NA
Location:  36.524°N, 81.538°W
Report Text: KGEV 220455Z AUTO 15003KT 1/4SM -RA OVC003 01/01 A3014 RMK AO2 T00110011
Loading
Personal Weather Stations






























Interactive Weather Map New forecast layout! Learn more

10-Day Weather Forecast

Advertisements
Track Severe Weather on mobile